McGuffey, Ohio
Current Conditions -  °F | °C
As of 8:53 AM on Monday 20 Oct 2014 (Local Time) from KAOH Reporting Station
Overcast Overcast  
Wind Chill: 51°   Ceiling: 8000
Heat Index: 51°   Visibility: 10mi
Dew Point: 43°   Wind: 10mph
Humidity: 74%   Direction: 190°S
Pressure: 29.92"   Gusts: NA
Location:  40.69°N, 83.79°W
Report Text: KAOH 201253Z AUTO 19009KT 10SM OVC080 11/06 A2992 RMK AO2 SLP133 T01060061
Loading
Personal Weather Stations






























Interactive Weather Map
Tropical Storm Tracking
New forecast layout! Learn more

10-Day Weather Forecast

Advertisements
Track Severe Weather on mobile